createdAt,value
2018-03-23T00:05:56.903Z,6.80
2018-03-23T00:11:00.844Z,6.80
2018-03-23T00:16:04.717Z,6.80
2018-03-23T00:21:07.824Z,6.80
2018-03-23T00:31:15.775Z,6.80
2018-03-23T00:36:19.644Z,6.90
2018-03-23T00:41:23.585Z,6.80
2018-03-23T00:46:26.727Z,6.90
2018-03-23T00:51:29.816Z,6.80
2018-03-23T01:06:44.121Z,6.80
2018-03-23T01:11:47.224Z,6.80
2018-03-23T01:21:55.582Z,6.80
2018-03-23T01:26:58.685Z,6.80
2018-03-23T01:32:02.175Z,6.80
2018-03-23T01:37:06.789Z,6.80
2018-03-23T01:42:10.276Z,6.80
2018-03-23T01:47:14.509Z,6.80
2018-03-23T01:52:18.384Z,6.70
2018-03-23T01:57:21.882Z,6.70
2018-03-23T02:02:25.580Z,6.80
2018-03-23T02:07:28.696Z,6.80
2018-03-23T02:12:31.797Z,6.80
2018-03-23T02:17:34.993Z,6.80
2018-03-23T02:22:38.106Z,6.80
2018-03-23T02:27:42.331Z,6.70
2018-03-23T02:37:50.689Z,6.70
2018-03-23T02:42:55.283Z,6.80
2018-03-23T02:47:58.393Z,6.70
2018-03-23T02:53:02.239Z,6.70
2018-03-23T02:58:05.536Z,6.70
2018-03-23T03:13:17.936Z,6.70
2018-03-23T03:18:21.440Z,6.70
2018-03-23T03:23:25.993Z,6.70
2018-03-23T03:28:29.094Z,6.70
2018-03-23T03:33:32.213Z,6.70
2018-03-23T03:38:35.311Z,6.70
2018-03-23T03:43:39.181Z,6.60
2018-03-23T03:53:47.131Z,6.60
2018-03-23T04:08:59.957Z,6.60
2018-03-23T04:14:04.204Z,6.60
2018-03-23T04:24:11.760Z,6.60
2018-03-23T04:29:16.692Z,6.60
2018-03-23T04:34:20.200Z,6.60
2018-03-23T04:44:28.536Z,6.60
2018-03-23T04:49:32.033Z,6.60
2018-03-23T04:59:40.341Z,6.60
2018-03-23T05:04:43.450Z,6.60
2018-03-23T05:09:46.957Z,6.60
2018-03-23T05:19:54.891Z,6.60
2018-03-23T05:24:59.544Z,6.50
2018-03-23T05:30:03.780Z,6.50
2018-03-23T05:35:07.649Z,6.50
2018-03-23T05:40:11.510Z,6.50
2018-03-23T05:45:15.388Z,6.50
2018-03-23T05:55:22.918Z,6.40
2018-03-23T06:00:26.442Z,6.40
2018-03-23T06:10:34.823Z,6.40
2018-03-23T06:15:37.937Z,6.40
2018-03-23T06:25:46.270Z,6.40
2018-03-23T06:30:50.931Z,6.50
2018-03-23T06:40:59.555Z,6.50
2018-03-23T06:46:04.284Z,6.50
2018-03-23T06:56:12.229Z,6.50
2018-03-23T07:06:22.092Z,6.50
2018-03-23T07:11:25.192Z,6.50
2018-03-23T07:21:33.309Z,6.60
2018-03-23T07:26:36.827Z,6.60
2018-03-23T07:31:40.710Z,6.70
2018-03-23T07:36:43.825Z,6.70
2018-03-23T07:41:46.933Z,6.70
2018-03-23T07:51:54.482Z,6.70
2018-03-23T08:02:03.590Z,6.70
2018-03-23T08:07:07.464Z,6.70
2018-03-23T08:12:11.727Z,6.80
2018-03-23T08:27:25.797Z,7.50
2018-03-23T08:37:34.564Z,8.40
2018-03-23T08:42:39.388Z,9.00
2018-03-23T08:47:42.510Z,9.40
2018-03-23T09:02:55.504Z,9.00
2018-03-23T09:07:58.626Z,9.00
2018-03-23T09:13:02.142Z,8.90
2018-03-23T09:18:06.805Z,9.10
2018-03-23T09:23:09.934Z,9.40
2018-03-23T09:28:17.174Z,9.70
2018-03-23T09:33:20.692Z,9.80
2018-03-23T09:38:24.199Z,9.90
2018-03-23T09:43:28.825Z,9.80
2018-03-23T09:53:37.891Z,9.60
2018-03-23T10:03:45.921Z,9.70
2018-03-23T10:18:58.690Z,9.50
2018-03-23T10:24:02.551Z,9.60
2018-03-23T10:39:14.609Z,10.00
2018-03-23T10:44:17.742Z,10.00
2018-03-23T10:49:21.622Z,10.20
2018-03-23T10:59:30.326Z,10.50
2018-03-23T11:04:33.435Z,11.00
2018-03-23T11:19:45.952Z,11.00
2018-03-23T11:24:49.063Z,11.00
2018-03-23T11:29:52.147Z,11.20
2018-03-23T11:34:56.735Z,11.20
2018-03-23T11:40:02.327Z,11.30
2018-03-23T11:50:11.018Z,11.20
2018-03-23T11:55:15.503Z,11.00
2018-03-23T12:05:23.036Z,10.60
2018-03-23T12:10:26.145Z,10.60
2018-03-23T12:20:34.086Z,10.50
2018-03-23T12:25:37.935Z,10.40
2018-03-23T12:30:42.402Z,10.30
2018-03-23T12:35:45.483Z,10.30
2018-03-23T12:40:48.987Z,10.30
2018-03-23T12:45:52.346Z,10.40
2018-03-23T12:50:55.847Z,10.40
2018-03-23T13:01:04.306Z,10.20
2018-03-23T13:06:07.444Z,10.10
2018-03-23T13:11:11.339Z,10.00
2018-03-23T13:16:15.196Z,9.90
2018-03-23T13:21:19.824Z,9.80
2018-03-23T13:31:27.489Z,9.80
2018-03-23T13:41:35.427Z,9.80
2018-03-23T13:51:42.954Z,9.70
2018-03-23T13:56:47.189Z,9.60
2018-03-23T14:01:50.277Z,9.70
2018-03-23T14:06:54.533Z,9.60
2018-03-23T14:17:02.600Z,9.60
2018-03-23T14:22:06.451Z,9.60
2018-03-23T14:27:09.929Z,9.70
2018-03-23T14:32:13.797Z,9.80
2018-03-23T14:37:18.363Z,9.70
2018-03-23T14:42:21.859Z,9.70
2018-03-23T14:47:24.956Z,9.60
2018-03-23T14:52:28.454Z,9.70
2018-03-23T14:57:31.530Z,9.60
2018-03-23T15:02:34.649Z,9.50
2018-03-23T15:07:37.715Z,9.50
2018-03-23T15:17:45.440Z,9.40
2018-03-23T15:27:53.741Z,9.30
2018-03-23T15:32:56.850Z,9.20
2018-03-23T15:38:00.683Z,9.20
2018-03-23T15:43:03.848Z,9.10
2018-03-23T15:48:07.549Z,9.10
2018-03-23T15:58:15.939Z,9.10
2018-03-23T16:03:19.793Z,9.00
2018-03-23T16:08:22.869Z,9.00
2018-03-23T16:13:26.720Z,8.80
2018-03-23T16:18:29.860Z,8.80
2018-03-23T16:23:32.909Z,8.70
2018-03-23T16:28:36.751Z,8.50
2018-03-23T16:33:39.845Z,8.50
2018-03-23T16:38:43.688Z,8.40
2018-03-23T16:43:46.808Z,8.30
2018-03-23T16:48:49.883Z,8.30
2018-03-23T16:53:54.099Z,8.30
2018-03-23T16:58:57.595Z,8.20
2018-03-23T17:04:01.479Z,8.20
2018-03-23T17:19:14.733Z,8.20
2018-03-23T17:24:18.623Z,8.10
2018-03-23T17:34:27.671Z,8.10
2018-03-23T17:39:31.317Z,8.00
2018-03-23T17:44:35.997Z,8.00
2018-03-23T17:54:44.278Z,7.90
2018-03-23T17:59:47.760Z,7.80
2018-03-23T18:04:51.270Z,7.80
2018-03-23T18:09:54.358Z,7.70
2018-03-23T18:14:58.204Z,7.80
2018-03-23T18:20:02.033Z,7.80
2018-03-23T18:25:06.359Z,7.70
2018-03-23T18:35:16.406Z,7.70
2018-03-23T18:40:20.257Z,7.70
2018-03-23T18:45:23.338Z,7.60
2018-03-23T19:00:36.605Z,7.50
2018-03-23T19:05:40.429Z,7.50
2018-03-23T19:10:43.522Z,7.50
2018-03-23T19:15:47.428Z,7.50
2018-03-23T19:25:54.909Z,7.40
2018-03-23T19:30:58.809Z,7.30
2018-03-23T19:36:02.796Z,7.40
2018-03-23T19:41:06.808Z,7.30
2018-03-23T19:46:10.656Z,7.30
2018-03-23T19:56:19.566Z,7.30
2018-03-23T20:01:23.792Z,7.10
2018-03-23T20:06:26.886Z,7.20
2018-03-23T20:16:35.905Z,7.10
2018-03-23T20:21:39.765Z,7.10
2018-03-23T20:26:42.851Z,7.00
2018-03-23T20:31:52.273Z,7.00
2018-03-23T20:36:55.361Z,7.00
2018-03-23T20:41:58.445Z,7.00
2018-03-23T20:57:10.797Z,6.90
2018-03-23T21:02:15.036Z,7.00
2018-03-23T21:12:24.080Z,6.90
2018-03-23T21:22:31.825Z,6.90
2018-03-23T21:27:34.929Z,6.80
2018-03-23T21:32:38.021Z,6.80
2018-03-23T21:37:41.894Z,6.80
2018-03-23T21:42:46.131Z,6.70
2018-03-23T21:52:55.168Z,6.60
2018-03-23T21:57:59.021Z,6.50
2018-03-23T22:03:03.321Z,6.40
2018-03-23T22:08:07.785Z,6.50
2018-03-23T22:13:10.874Z,6.60
2018-03-23T22:18:14.733Z,6.60
2018-03-23T22:28:22.258Z,6.60
2018-03-23T22:38:29.846Z,6.60
2018-03-23T22:43:34.012Z,6.50
2018-03-23T22:48:37.862Z,6.40
2018-03-23T22:53:40.986Z,6.30
2018-03-23T22:58:44.786Z,6.30
2018-03-23T23:03:48.660Z,6.30
2018-03-23T23:08:52.543Z,6.20
2018-03-23T23:13:56.752Z,6.00
2018-03-23T23:29:11.159Z,5.50
2018-03-23T23:39:20.162Z,5.20
2018-03-23T23:44:24.733Z,5.00
2018-03-23T23:49:27.825Z,4.90
2018-03-23T23:54:30.899Z,4.80
